Time;durP1;ratioP1;P1;durP2;ratioP2;P2;SDS_P1;SDS_P2;PMS_P1;PMS_P2;Temp;Humidity;BMP_temperature;BMP_pressure;BME280_temperature;BME280_humidity;BME280_pressure;Samples;Min_cycle;Max_cycle;Signal;HPM_P1;HPM_P2
2021/06/23 00:02:22;;;;;;;3.95;3.53;;;;;;;20.90;75.71;100706.16;4889169;28;102402;-67
2021/06/23 00:04:51;;;;;;;3.40;3.10;;;;;;;20.91;75.70;100702.22;4886063;28;102492;-67
2021/06/23 00:07:17;;;;;;;3.58;3.28;;;;;;;20.90;75.68;100706.97;4890899;28;102198;-67
2021/06/23 00:09:44;;;;;;;3.22;3.03;;;;;;;20.88;75.71;100704.56;4893899;28;103600;-67
2021/06/23 00:12:16;;;;;;;12.63;3.15;;;;;;;20.89;75.78;100705.34;4891853;28;102428;-67
2021/06/23 00:14:43;;;;;;;3.22;2.97;;;;;;;20.90;75.69;100695.09;4891695;28;102391;-67
2021/06/23 00:17:10;;;;;;;4.50;3.35;;;;;;;20.89;75.78;100702.59;4893111;28;102229;-67
2021/06/23 00:19:36;;;;;;;3.70;3.40;;;;;;;20.88;75.37;100693.47;4892636;28;103935;-67
2021/06/23 00:22:05;;;;;;;3.10;2.78;;;;;;;20.90;75.72;100703.38;4892459;28;102359;-67
2021/06/23 00:24:31;;;;;;;3.40;3.10;;;;;;;20.86;75.78;100698.53;4893369;28;102736;-68
2021/06/23 00:26:58;;;;;;;3.40;3.03;;;;;;;20.87;75.66;100691.84;4892960;28;102185;-67
2021/06/23 00:29:25;;;;;;;3.60;3.25;;;;;;;20.89;75.58;100694.28;4886915;28;103911;-67
2021/06/23 00:31:52;;;;;;;3.22;2.83;;;;;;;20.88;75.63;100693.47;4891651;28;102538;-67
2021/06/23 00:34:20;;;;;;;3.72;3.25;;;;;;;20.87;75.54;100689.09;4890240;28;103563;-67
2021/06/23 00:36:47;;;;;;;;;;;;;;;20.89;75.61;100688.75;4893083;28;102162;-67
2021/06/23 00:39:15;;;;;;;4.22;3.60;;;;;;;20.88;75.51;100690.72;4891236;28;102722;-70
2021/06/23 00:41:41;;;;;;;5.57;4.47;;;;;;;20.90;75.42;100692.31;4890900;28;102400;-69
2021/06/23 00:44:08;;;;;;;4.35;3.33;;;;;;;20.88;75.65;100687.94;4893092;28;102888;-67
2021/06/23 00:46:35;;;;;;;4.05;3.65;;;;;;;20.88;75.64;100676.88;4893543;28;102348;-67
2021/06/23 00:49:02;;;;;;;3.72;3.42;;;;;;;20.85;75.61;100677.56;4888701;28;103688;-67
2021/06/23 00:51:29;;;;;;;3.17;2.97;;;;;;;20.86;75.52;100683.91;4892451;28;102693;-67
2021/06/23 00:53:56;;;;;;;5.32;3.13;;;;;;;20.85;75.49;100685.06;4890893;28;102588;-67
2021/06/23 00:56:31;;;;;;;4.40;3.30;;;;;;;20.85;75.41;100677.56;4897226;28;102376;-68
2021/06/23 00:58:59;;;;;;;4.20;3.33;;;;;;;20.87;75.61;100691.84;4894851;28;103823;-67
2021/06/23 01:01:26;;;;;;;3.75;2.80;;;;;;;20.86;75.44;100684.72;4896468;28;102357;-67
2021/06/23 01:03:53;;;;;;;4.72;3.40;;;;;;;20.88;75.38;100699.03;4895863;28;104092;-67
2021/06/23 01:06:20;;;;;;;7.85;4.05;;;;;;;20.87;75.46;100697.38;4894536;28;102636;-67
2021/06/23 01:08:48;;;;;;;7.13;3.50;;;;;;;20.87;75.54;100702.09;4888150;28;103978;-67
2021/06/23 01:11:15;;;;;;;3.58;3.25;;;;;;;20.85;75.50;100702.47;4892068;28;102421;-67
2021/06/23 01:13:56;;;;;;;5.53;3.42;;;;;;;20.85;75.62;100708.00;4890446;28;102208;-66
2021/06/23 01:16:24;;;;;;;3.22;2.92;;;;;;;20.84;75.50;100697.25;4894165;28;102275;-67
2021/06/23 01:18:52;;;;;;;4.70;3.55;;;;;;;20.84;75.50;100700.03;4891809;28;103860;-67
2021/06/23 01:21:18;;;;;;;3.60;3.30;;;;;;;20.83;75.66;100695.66;4891248;28;102991;-67
2021/06/23 01:23:46;;;;;;;3.65;3.35;;;;;;;20.83;75.52;100701.97;4889386;28;102562;-67
2021/06/23 01:26:13;;;;;;;4.10;3.25;;;;;;;20.84;75.47;100709.16;4891845;28;102666;-68
2021/06/23 01:28:40;;;;;;;5.90;3.20;;;;;;;20.83;75.61;100710.28;4888253;28;102711;-67
2021/06/23 01:31:06;;;;;;;3.78;3.47;;;;;;;20.84;75.65;100719.38;4892408;28;102659;-67
2021/06/23 01:33:34;;;;;;;3.30;3.00;;;;;;;20.84;75.62;100719.38;4890344;28;102475;-67
2021/06/23 01:36:01;;;;;;;3.90;3.20;;;;;;;20.84;75.52;100722.97;4889967;28;103587;-67
2021/06/23 01:38:27;;;;;;;3.42;3.13;;;;;;;20.84;75.60;100731.28;4889864;28;103955;-67
2021/06/23 01:40:56;;;;;;;3.63;3.33;;;;;;;20.83;75.38;100732.41;4895232;28;105342;-67
2021/06/23 01:43:22;;;;;;;5.15;3.63;;;;;;;20.84;75.45;100730.44;4890705;28;102809;-67
2021/06/23 01:45:49;;;;;;;3.75;3.10;;;;;;;20.83;75.40;100735.16;4884562;28;102827;-68
2021/06/23 01:48:19;;;;;;;3.92;3.35;;;;;;;20.83;75.55;100726.88;4890402;28;103897;-67
2021/06/23 01:50:51;;;;;;;3.75;3.42;;;;;;;20.83;75.51;100729.63;4891884;28;102645;-67
2021/06/23 01:53:18;;;;;;;3.55;3.25;;;;;;;20.82;75.49;100730.78;4891675;28;102509;-67
2021/06/23 01:55:47;;;;;;;4.47;3.58;;;;;;;20.83;75.51;100729.63;4892902;28;102234;-67
2021/06/23 01:58:16;;;;;;;3.90;3.53;;;;;;;20.83;75.54;100729.63;4891004;28;102967;-66
2021/06/23 02:00:50;;;;;;;5.15;3.85;;;;;;;20.83;75.56;100723.31;4893199;28;102127;-66
2021/06/23 02:03:22;;;;;;;3.80;3.50;;;;;;;20.81;75.47;100715.34;4889012;28;102513;-66
2021/06/23 02:06:03;;;;;;;3.63;3.33;;;;;;;20.81;75.33;100720.88;4891827;28;102548;-67
2021/06/23 02:08:52;;;;;;;3.80;3.35;;;;;;;20.82;75.71;100724.47;4889878;28;104702;-67
2021/06/23 02:11:31;;;;;;;;;;;;;;;20.82;75.37;100728.03;4886972;28;102599;-67
2021/06/23 02:14:28;;;;;;;3.90;3.50;;;;;;;20.82;75.36;100739.09;4889568;28;102733;-67
2021/06/23 02:16:56;;;;;;;3.95;3.58;;;;;;;20.82;75.58;100739.09;4884191;28;102639;-67
2021/06/23 02:19:24;;;;;;;3.67;3.38;;;;;;;20.82;75.48;100738.28;4890878;28;104246;-67
2021/06/23 02:21:50;;;;;;;3.53;3.22;;;;;;;20.80;75.43;100741.38;4890712;28;102507;-67
2021/06/23 02:24:17;;;;;;;3.40;3.10;;;;;;;20.81;75.43;100743.03;4905134;28;103262;-67
2021/06/23 02:26:45;;;;;;;4.07;3.33;;;;;;;20.81;75.35;100745.78;4890871;28;102003;-67
2021/06/23 02:29:13;;;;;;;3.45;3.15;;;;;;;20.81;75.41;100753.28;4887893;28;104138;-67
2021/06/23 02:31:39;;;;;;;3.75;3.25;;;;;;;20.80;75.51;100751.63;4891528;28;102654;-67
2021/06/23 02:34:09;;;;;;;3.53;3.22;;;;;;;20.80;75.55;100752.44;4889029;28;102555;-67
2021/06/23 02:36:37;;;;;;;3.70;3.40;;;;;;;20.80;75.34;100752.44;4890719;28;102546;-67
2021/06/23 02:39:04;;;;;;;3.85;3.47;;;;;;;20.79;75.28;100739.78;4888919;28;103880;-67
2021/06/23 02:41:32;;;;;;;5.30;3.25;;;;;;;20.80;75.37;100752.44;4891116;28;102550;-67
2021/06/23 02:43:59;;;;;;;21.40;4.35;;;;;;;20.80;75.39;100740.56;4890429;28;102215;-67
2021/06/23 02:46:27;;;;;;;3.50;3.20;;;;;;;20.81;75.29;100751.31;4890356;28;102582;-67
2021/06/23 02:48:57;;;;;;;3.45;3.15;;;;;;;20.80;75.35;100746.91;4888019;28;104198;-67
2021/06/23 02:51:25;;;;;;;3.78;3.47;;;;;;;20.79;75.26;100750.03;4890938;28;102149;-67
2021/06/23 02:53:53;;;;;;;3.13;2.92;;;;;;;20.79;75.30;100750.84;4889298;28;102520;-67
2021/06/23 02:56:21;;;;;;;5.77;2.70;;;;;;;20.85;75.27;100748.69;4889833;28;103020;-67
2021/06/23 02:58:49;;;;;;;3.70;3.08;;;;;;;20.84;75.39;100753.41;4889995;28;103963;-68
2021/06/23 03:01:17;;;;;;;3.13;2.33;;;;;;;20.84;75.29;100756.19;4890037;28;102186;-67
2021/06/23 03:03:46;;;;;;;3.40;3.10;;;;;;;20.82;75.25;100761.22;4896247;28;102497;-67
2021/06/23 03:06:12;;;;;;;3.80;3.40;;;;;;;20.82;75.25;100761.22;4889695;28;102824;-67
2021/06/23 03:08:39;;;;;;;4.10;3.00;;;;;;;20.82;75.51;100764.00;4889678;28;104106;-67
2021/06/23 03:11:07;;;;;;;2.92;2.60;;;;;;;20.84;75.50;100775.53;4897465;28;102392;-68
2021/06/23 03:13:35;;;;;;;2.90;2.70;;;;;;;20.82;75.56;100772.28;4890166;28;102366;-67
2021/06/23 03:16:02;;;;;;;4.18;2.58;;;;;;;20.82;75.40;100772.28;4889943;28;103056;-67
2021/06/23 03:18:32;;;;;;;3.22;2.92;;;;;;;20.83;75.35;100773.09;4888284;28;103915;-67
2021/06/23 03:21:02;;;;;;;4.03;2.90;;;;;;;20.83;75.46;100773.91;4889198;28;102758;-67
2021/06/23 03:23:29;;;;;;;3.13;2.88;;;;;;;20.83;75.52;100773.91;4889726;28;102954;-66
2021/06/23 03:25:56;;;;;;;3.60;2.80;;;;;;;20.84;75.38;100775.53;4888771;28;102425;-67
2021/06/23 03:28:23;;;;;;;3.50;3.25;;;;;;;20.85;75.38;100781.88;4889792;28;104073;-67
2021/06/23 03:30:49;;;;;;;2.90;2.70;;;;;;;20.84;75.48;100781.06;4888995;28;102681;-68
2021/06/23 03:33:17;;;;;;;3.08;2.88;;;;;;;20.85;75.35;100779.09;4888956;28;102754;-67
2021/06/23 03:35:44;;;;;;;3.50;2.72;;;;;;;20.85;75.42;100782.69;4890343;28;102209;-67
2021/06/23 03:38:12;;;;;;;2.85;2.65;;;;;;;20.85;75.27;100790.97;4889104;28;102767;-67
2021/06/23 03:40:38;;;;;;;3.00;2.80;;;;;;;20.85;75.31;100788.22;4892270;28;102277;-67
2021/06/23 03:43:06;;;;;;;3.10;2.85;;;;;;;20.85;75.38;100792.94;4891441;28;102549;-67
2021/06/23 03:45:33;;;;;;;2.83;2.47;;;;;;;20.86;75.37;100806.41;4890786;28;102781;-67
2021/06/23 03:48:00;;;;;;;2.90;2.70;;;;;;;20.86;75.44;100806.41;4891342;28;103868;-67
2021/06/23 03:50:29;;;;;;;3.03;2.83;;;;;;;20.87;75.26;100791.44;4891091;28;102782;-67
2021/06/23 03:52:55;;;;;;;3.05;2.83;;;;;;;20.87;75.35;100802.50;4885733;28;102227;-67
2021/06/23 03:55:27;;;;;;;5.35;2.95;;;;;;;20.88;75.53;100795.84;4893765;28;102297;-67
2021/06/23 03:57:56;;;;;;;3.00;2.80;;;;;;;20.88;75.33;100798.59;4895862;28;103929;-67
2021/06/23 04:00:26;;;;;;;3.80;2.88;;;;;;;20.90;75.14;100789.16;4891204;28;103302;-67
2021/06/23 04:02:53;;;;;;;5.15;2.55;;;;;;;20.90;75.49;100794.69;4892319;28;102589;-67
2021/06/23 04:05:20;;;;;;;2.78;2.58;;;;;;;20.88;75.34;100787.53;4892388;28;104069;-67
2021/06/23 04:07:47;;;;;;;2.85;2.65;;;;;;;20.90;75.31;100787.19;4896710;28;104431;-67
2021/06/23 04:10:15;;;;;;;3.30;2.88;;;;;;;20.91;75.07;100782.47;4895163;28;102138;-67
2021/06/23 04:12:44;;;;;;;2.90;2.70;;;;;;;20.91;75.23;100785.22;4892579;28;102330;-67
2021/06/23 04:15:14;;;;;;;2.70;2.50;;;;;;;20.92;75.25;100781.31;4891362;28;102086;-67
2021/06/23 04:17:41;;;;;;;2.78;2.58;;;;;;;20.92;75.33;100786.88;4892822;28;103808;-67
2021/06/23 04:20:09;;;;;;;3.15;2.78;;;;;;;20.91;75.17;100786.03;4890344;28;102201;-67
2021/06/23 04:22:36;;;;;;;2.67;2.47;;;;;;;20.92;75.57;100787.66;4891398;28;102298;-67
2021/06/23 04:25:04;;;;;;;2.40;2.13;;;;;;;20.93;75.16;100782.94;4899761;28;102539;-67
2021/06/23 04:27:31;;;;;;;2.78;2.58;;;;;;;20.93;75.19;100778.22;4883906;28;104069;-67
2021/06/23 04:29:59;;;;;;;3.22;2.25;;;;;;;20.95;75.26;100780.63;4890675;28;102150;-67
2021/06/23 04:32:25;;;;;;;2.80;2.60;;;;;;;20.95;75.24;100783.38;4890693;28;103354;-67
2021/06/23 04:34:52;;;;;;;2.60;2.28;;;;;;;20.96;75.27;100787.78;4892403;28;102763;-67
2021/06/23 04:37:18;;;;;;;2.60;2.40;;;;;;;20.97;75.08;100787.44;4890851;28;103518;-67
2021/06/23 04:39:45;;;;;;;3.00;2.70;;;;;;;20.97;75.10;100781.09;4892468;28;103085;-67
2021/06/23 04:42:12;;;;;;;2.60;2.40;;;;;;;20.97;74.91;100786.63;4905539;28;102700;-67
2021/06/23 04:44:39;;;;;;;3.85;2.70;;;;;;;20.98;75.17;100786.28;4891781;28;103596;-67
2021/06/23 04:47:07;;;;;;;3.42;2.47;;;;;;;20.98;75.05;100780.75;4889735;28;102866;-67
2021/06/23 04:49:33;;;;;;;3.00;2.80;;;;;;;20.99;75.09;100784.31;4889718;28;102239;-67
2021/06/23 04:52:00;;;;;;;2.85;2.65;;;;;;;21.00;75.16;100780.44;4891435;28;102419;-67
2021/06/23 04:54:27;;;;;;;2.85;2.60;;;;;;;21.00;75.05;100788.72;4892680;28;102515;-67
2021/06/23 04:56:53;;;;;;;9.18;2.95;;;;;;;21.02;75.02;100786.41;4887830;28;103892;-67
2021/06/23 04:59:20;;;;;;;3.15;2.85;;;;;;;21.02;75.01;100786.41;4888885;28;104236;-67
2021/06/23 05:01:47;;;;;;;25.38;4.03;;;;;;;21.03;75.03;100782.53;4889609;28;102447;-67
2021/06/23 05:04:16;;;;;;;43.53;4.15;;;;;;;21.05;75.06;100788.50;4896068;28;102301;-67
2021/06/23 05:06:42;;;;;;;;;;;;;;;21.04;75.07;100778.59;4890407;28;103776;-67
2021/06/23 05:09:09;;;;;;;23.42;3.63;;;;;;;21.05;74.91;100786.53;4896560;28;102416;-68
2021/06/23 05:11:36;;;;;;;4.25;3.13;;;;;;;21.06;74.86;100792.88;4888696;28;103225;-67
2021/06/23 05:14:03;;;;;;;22.75;6.13;;;;;;;21.21;77.19;100797.00;4893055;28;102760;-70
2021/06/23 05:16:30;;;;;;;41.20;9.98;;;;;;;21.49;79.52;100802.72;4890805;28;102749;-69
2021/06/23 05:18:58;;;;;;;21.80;9.93;;;;;;;21.67;80.73;100801.38;4892230;28;102522;-68
2021/06/23 05:21:25;;;;;;;18.90;8.60;;;;;;;21.79;80.08;100801.41;4890964;28;101990;-68
2021/06/23 05:23:53;;;;;;;19.50;7.75;;;;;;;21.83;79.57;100799.56;4892212;28;105376;-69
2021/06/23 05:26:20;;;;;;;30.70;7.97;;;;;;;21.88;79.60;100790.19;4890453;28;103159;-69
2021/06/23 05:28:46;;;;;;;17.70;8.00;;;;;;;21.93;79.62;100797.50;4891550;28;102710;-69
2021/06/23 05:31:13;;;;;;;14.55;6.70;;;;;;;21.97;79.46;100793.66;4892001;28;102915;-70
2021/06/23 05:33:40;;;;;;;17.67;7.47;;;;;;;22.02;79.76;100795.41;4894634;28;102647;-70
2021/06/23 05:36:06;;;;;;;16.65;8.13;;;;;;;22.06;79.87;100802.66;4893514;28;103924;-62
2021/06/23 05:38:35;;;;;;;17.67;9.85;;;;;;;22.14;80.40;100803.72;4895554;28;102347;-72
2021/06/23 05:41:01;;;;;;;14.68;10.18;;;;;;;22.17;80.03;100803.03;4896402;28;102608;-72
2021/06/23 05:43:28;;;;;;;13.95;9.98;;;;;;;22.21;80.15;100803.13;4894838;28;102480;-71
2021/06/23 05:45:55;;;;;;;14.82;8.30;;;;;;;22.26;80.28;100805.69;4888793;28;103774;-72
2021/06/23 05:48:21;;;;;;;19.95;8.18;;;;;;;22.28;79.78;100809.72;4891484;28;102376;-72
2021/06/23 05:50:48;;;;;;;23.00;7.40;;;;;;;22.33;79.63;100810.66;4889441;28;102469;-71
2021/06/23 05:53:15;;;;;;;21.52;9.63;;;;;;;22.36;79.97;100799.69;4892164;28;103311;-71
2021/06/23 05:55:43;;;;;;;29.85;11.07;;;;;;;22.41;79.71;100806.94;4889997;28;103924;-71
2021/06/23 05:58:09;;;;;;;22.58;8.60;;;;;;;22.44;79.40;100812.59;4891459;28;102321;-72
2021/06/23 06:00:36;;;;;;;22.15;7.95;;;;;;;22.45;79.13;100813.41;4886533;28;102709;-72
2021/06/23 06:03:05;;;;;;;19.88;7.82;;;;;;;22.50;79.61;100813.16;4889336;28;102554;-72
2021/06/23 06:05:33;;;;;;;;;;;;;;;22.54;79.59;100805.75;4890070;28;104361;-71
2021/06/23 06:08:00;;;;;;;25.48;7.60;;;;;;;22.61;79.44;100821.78;4891704;28;102632;-73
2021/06/23 06:10:27;;;;;;;31.20;7.85;;;;;;;22.63;79.51;100814.75;4889301;28;102474;-73
2021/06/23 06:12:55;;;;;;;20.75;7.55;;;;;;;22.62;79.11;100818.69;4890762;28;102406;-72
2021/06/23 06:15:24;;;;;;;25.75;7.60;;;;;;;22.62;78.98;100823.44;4886836;28;104174;-72
2021/06/23 06:17:50;;;;;;;20.50;8.27;;;;;;;22.62;79.04;100818.69;4883594;28;102710;-72
2021/06/23 06:20:17;;;;;;;30.13;11.90;;;;;;;22.67;79.49;100826.75;4885146;28;102219;-72
2021/06/23 06:22:44;;;;;;;24.55;9.80;;;;;;;22.69;79.04;100826.41;4898021;28;102521;-71
2021/06/23 06:25:11;;;;;;;25.33;8.63;;;;;;;22.69;78.94;100821.66;4888192;28;102785;-70
2021/06/23 06:27:38;;;;;;;19.52;8.93;;;;;;;22.68;79.08;100817.25;4890140;28;102747;-70
2021/06/23 06:30:09;;;;;;;28.17;8.57;;;;;;;22.69;78.98;100807.81;4881969;28;103326;-70
2021/06/23 06:32:35;;;;;;;23.02;8.63;;;;;;;22.70;78.95;100803.84;4888082;28;102390;-71
2021/06/23 06:35:02;;;;;;;18.00;7.90;;;;;;;22.73;79.06;100802.34;4890611;28;103956;-71
2021/06/23 06:37:29;;;;;;;18.55;7.70;;;;;;;22.75;79.01;100795.28;4885381;28;102994;-69
2021/06/23 06:39:56;;;;;;;22.52;8.50;;;;;;;22.78;78.94;100791.81;4885631;28;102285;-71
2021/06/23 06:42:23;;;;;;;19.25;7.53;;;;;;;22.81;79.03;100795.03;4890646;28;103046;-71
2021/06/23 06:44:50;;;;;;;20.40;7.97;;;;;;;22.82;79.11;100791.91;4883840;28;103961;-72
2021/06/23 06:47:18;;;;;;;18.27;7.65;;;;;;;22.86;79.08;100783.69;4886780;28;102576;-71
2021/06/23 06:49:45;;;;;;;21.15;9.00;;;;;;;22.91;79.06;100800.91;4888033;28;102583;-66
2021/06/23 06:52:11;;;;;;;28.67;8.35;;;;;;;22.98;79.15;100801.13;4878770;28;103023;-74
2021/06/23 06:54:38;;;;;;;35.72;8.35;;;;;;;23.02;79.28;100809.56;4886352;28;104316;-70
2021/06/23 06:57:05;;;;;;;26.55;8.60;;;;;;;23.04;78.54;100807.22;4888592;28;102445;-70
2021/06/23 06:59:31;;;;;;;21.63;8.02;;;;;;;23.05;78.64;100808.84;4888822;28;103043;-70
2021/06/23 07:01:58;;;;;;;31.73;7.88;;;;;;;23.11;79.31;100807.44;4889547;28;102683;-71
2021/06/23 07:04:26;;;;;;;30.23;8.18;;;;;;;23.18;79.14;100801.25;4885661;28;103913;-71
2021/06/23 07:06:53;;;;;;;;;;;;;;;23.23;79.23;100807.38;4888646;28;102119;-71
2021/06/23 07:09:20;;;;;;;26.35;7.47;;;;;;;23.30;78.61;100814.28;4897892;28;103844;-70
2021/06/23 07:11:49;;;;;;;22.17;7.85;;;;;;;23.34;78.88;100810.44;4887365;28;102766;-69
2021/06/23 07:14:15;;;;;;;30.83;7.93;;;;;;;23.35;78.59;100816.81;4887832;28;104009;-71
2021/06/23 07:16:42;;;;;;;29.88;8.05;;;;;;;23.40;79.09;100817.34;4888196;28;102112;-72
2021/06/23 07:19:09;;;;;;;25.52;7.70;;;;;;;23.46;79.27;100824.25;4888129;28;102464;-72
2021/06/23 07:21:37;;;;;;;29.52;8.02;;;;;;;23.47;78.63;100819.50;4892719;28;102430;-72
2021/06/23 07:24:04;;;;;;;33.78;8.13;;;;;;;23.52;79.07;100822.03;4887665;28;103036;-72
2021/06/23 07:26:31;;;;;;;24.63;7.78;;;;;;;23.52;78.75;100833.16;4888823;28;102657;-72
2021/06/23 07:29:00;;;;;;;21.65;7.32;;;;;;;23.50;78.44;100833.47;4888797;28;102426;-72
2021/06/23 07:31:39;;;;;;;24.92;7.18;;;;;;;23.48;78.30;100832.25;4894698;28;102533;-73
2021/06/23 07:36:38;;;;;;;34.47;7.80;;;;;;;23.46;77.94;100826.22;4888239;28;102759;-74
2021/06/23 07:39:10;;;;;;;36.15;8.35;;;;;;;23.50;78.59;100827.13;4883814;28;102752;-68
2021/06/23 07:41:37;;;;;;;48.90;17.73;;;;;;;23.58;78.14;100826.13;4890135;28;102710;-72
2021/06/23 07:44:05;;;;;;;40.20;11.85;;;;;;;23.60;78.37;100829.38;4891566;28;104143;-73
2021/06/23 07:46:38;;;;;;;46.72;10.27;;;;;;;23.61;78.09;100828.22;4891395;28;102594;-69
2021/06/23 07:49:08;;;;;;;44.45;9.85;;;;;;;23.64;78.13;100833.06;4889409;28;102522;-69
2021/06/23 07:56:54;;;;;;;63.97;10.63;;;;;;;23.70;77.82;100834.44;4887437;28;102757;-66
2021/06/23 08:12:59;;;;;;;194.75;18.95;;;;;;;23.97;78.25;100838.28;4889500;28;102707;-65
2021/06/23 08:15:29;;;;;;;75.90;10.38;;;;;;;23.98;77.95;100839.91;4891379;28;104155;-65
2021/06/23 08:17:55;;;;;;;52.80;17.35;;;;;;;24.00;78.38;100847.88;4906265;28;102272;-65
2021/06/23 08:20:23;;;;;;;53.85;12.35;;;;;;;23.98;77.92;100844.66;4891787;28;102004;-65
2021/06/23 08:22:51;;;;;;;44.65;9.60;;;;;;;23.97;77.98;100851.38;4890710;28;102466;-60
2021/06/23 08:25:20;;;;;;;31.88;8.93;;;;;;;23.97;78.22;100854.97;4890388;28;102868;-67
2021/06/23 08:27:47;;;;;;;36.75;9.00;;;;;;;23.94;77.93;100861.25;4891086;28;102493;-67
2021/06/23 08:30:14;;;;;;;34.30;8.55;;;;;;;23.93;77.90;100865.19;4889495;28;102979;-67
2021/06/23 08:32:42;;;;;;;32.42;8.02;;;;;;;23.95;78.15;100867.63;4888417;28;102830;-66
2021/06/23 08:35:09;;;;;;;27.13;7.68;;;;;;;23.97;77.73;100868.88;4889113;28;103852;-66
2021/06/23 08:37:37;;;;;;;39.97;17.27;;;;;;;23.99;77.80;100862.97;4891022;28;102845;-66
2021/06/23 08:40:08;;;;;;;30.80;12.68;;;;;;;24.04;78.44;100854.34;4886979;28;102914;-66
2021/06/23 08:42:36;;;;;;;31.50;10.60;;;;;;;24.10;78.37;100869.59;4887950;28;103695;-66
2021/06/23 08:45:05;;;;;;;29.85;8.98;;;;;;;24.12;77.99;100867.25;4889861;28;103168;-67
2021/06/23 08:47:32;;;;;;;28.83;8.35;;;;;;;24.13;77.65;100868.88;4889485;28;102435;-67
2021/06/23 08:49:58;;;;;;;29.90;8.07;;;;;;;24.19;77.88;100855.50;4890627;28;102500;-66
2021/06/23 08:52:25;;;;;;;36.20;7.40;;;;;;;24.22;77.79;100860.34;4892652;28;102485;-66
2021/06/23 08:54:55;;;;;;;23.77;7.30;;;;;;;24.21;77.44;100856.75;4883747;28;102758;-67
2021/06/23 08:57:23;;;;;;;32.47;7.63;;;;;;;24.25;77.31;100854.06;4889820;28;103446;-67
2021/06/23 08:59:49;;;;;;;23.37;7.23;;;;;;;24.30;77.58;100847.41;4890405;28;102156;-65
2021/06/23 09:02:17;;;;;;;26.70;7.60;;;;;;;24.31;77.31;100854.59;4891637;28;102550;-65
2021/06/23 09:04:56;;;;;;;28.92;7.15;;;;;;;24.35;77.42;100855.50;4891925;28;102719;-70
2021/06/23 09:07:37;;;;;;;38.78;8.60;;;;;;;24.40;77.83;100858.00;4892222;28;102625;-71
2021/06/23 09:10:06;;;;;;;31.27;8.80;;;;;;;24.43;77.32;100857.28;4888368;28;102832;-72
2021/06/23 09:12:34;;;;;;;33.83;8.18;;;;;;;24.41;76.87;100851.25;4892419;28;102540;-71
2021/06/23 09:15:01;;;;;;;32.87;7.33;;;;;;;24.42;77.23;100864.84;4889910;28;104204;-72
2021/06/23 09:17:28;;;;;;;27.20;7.00;;;;;;;24.48;77.14;100856.19;4890111;28;102457;-71
2021/06/23 09:19:56;;;;;;;36.05;7.38;;;;;;;24.48;76.79;100854.22;4887382;28;102342;-71
2021/06/23 09:22:39;;;;;;;25.15;7.43;;;;;;;24.46;76.78;100859.34;4890852;28;102472;-71
2021/06/23 09:25:24;;;;;;;28.33;7.18;;;;;;;24.47;76.66;100849.81;4887622;28;103929;-70
2021/06/23 09:27:54;;;;;;;30.42;7.85;;;;;;;24.47;76.64;100855.38;4886968;28;102252;-70
2021/06/23 09:30:27;;;;;;;29.38;7.05;;;;;;;24.50;76.23;100853.88;4883903;28;102653;-71
2021/06/23 09:33:14;;;;;;;26.23;7.50;;;;;;;24.57;76.76;100860.41;4888250;28;102164;-71
2021/06/23 09:35:43;;;;;;;30.88;7.60;;;;;;;24.55;76.39;100851.59;4884752;28;103972;-64
2021/06/23 09:38:32;;;;;;;25.70;7.47;;;;;;;24.48;76.11;100851.44;4885496;28;102670;-64
2021/06/23 09:40:59;;;;;;;28.73;7.45;;;;;;;24.42;76.15;100852.91;4886297;28;102599;-65
2021/06/23 09:43:36;;;;;;;21.30;7.05;;;;;;;24.36;76.17;100857.09;4885312;28;103857;-65
2021/06/23 09:46:14;;;;;;;19.90;7.40;;;;;;;24.32;75.90;100856.22;4887984;28;104001;-66
2021/06/23 09:48:40;;;;;;;15.73;6.57;;;;;;;24.29;76.08;100854.13;4889816;28;102830;-66
2021/06/23 09:51:12;;;;;;;16.63;7.05;;;;;;;24.24;75.84;100857.22;4890255;28;102485;-65
2021/06/23 09:53:39;;;;;;;17.55;6.78;;;;;;;24.15;75.92;100855.41;4888752;28;102816;-65
2021/06/23 09:56:25;;;;;;;21.52;7.78;;;;;;;24.06;74.88;100862.34;4886342;28;103875;-65
2021/06/23 09:58:55;;;;;;;17.10;7.38;;;;;;;23.96;75.25;100858.13;4887189;28;103980;-65
2021/06/23 10:01:23;;;;;;;15.98;7.55;;;;;;;23.85;75.05;100852.28;4888579;28;102624;-65
2021/06/23 10:03:56;;;;;;;13.65;7.15;;;;;;;23.80;75.14;100854.50;4888022;28;102944;-65
2021/06/23 10:06:24;;;;;;;15.02;6.95;;;;;;;23.73;75.08;100844.84;4886934;28;104111;-65
2021/06/23 10:08:52;;;;;;;15.15;7.00;;;;;;;23.68;74.94;100853.44;4890932;28;102327;-65
2021/06/23 10:11:31;;;;;;;18.92;7.63;;;;;;;23.64;74.89;100852.50;4888329;28;106476;-66
2021/06/23 10:14:00;;;;;;;15.98;6.90;;;;;;;23.61;75.14;100846.84;4891387;28;102167;-65
2021/06/23 10:16:27;;;;;;;13.60;7.10;;;;;;;23.59;75.06;100844.44;4886676;28;104387;-65
2021/06/23 10:18:55;;;;;;;15.43;7.00;;;;;;;23.54;74.92;100847.47;4888250;28;103676;-65
2021/06/23 10:21:22;;;;;;;14.52;7.13;;;;;;;23.51;75.00;100848.19;4887758;28;102381;-65
2021/06/23 10:23:49;;;;;;;13.35;7.25;;;;;;;23.48;75.11;100837.81;4885608;28;102349;-65
2021/06/23 10:26:17;;;;;;;12.98;7.15;;;;;;;23.44;74.89;100837.72;4885474;28;103846;-64
2021/06/23 10:28:47;;;;;;;12.55;6.50;;;;;;;23.43;74.57;100836.06;4890463;28;102505;-65
2021/06/23 10:31:16;;;;;;;12.05;6.57;;;;;;;23.40;74.82;100830.41;4889837;28;102384;-66
2021/06/23 10:33:42;;;;;;;;;;;;;;;23.36;74.68;100832.28;4892168;28;102581;-67
2021/06/23 10:36:10;;;;;;;15.38;6.63;;;;;;;23.35;74.76;100833.47;4886119;28;102672;-66
2021/06/23 10:38:39;;;;;;;13.60;6.78;;;;;;;23.33;74.76;100830.22;4887735;28;102364;-65
2021/06/23 10:41:06;;;;;;;15.45;6.95;;;;;;;23.30;74.65;100839.25;4888939;28;102473;-65
2021/06/23 10:43:32;;;;;;;9.80;6.10;;;;;;;23.27;74.77;100826.91;4891754;28;102218;-66
2021/06/23 10:45:59;;;;;;;16.40;6.30;;;;;;;23.24;74.89;100825.66;4885931;28;103927;-65
2021/06/23 10:48:27;;;;;;;13.23;6.45;;;;;;;23.23;74.58;100828.78;4892322;28;104036;-66
2021/06/23 10:50:53;;;;;;;12.13;6.43;;;;;;;23.21;74.84;100836.66;4889534;28;102146;-66
2021/06/23 10:53:33;;;;;;;11.35;6.18;;;;;;;23.20;74.61;100832.28;4895122;28;102464;-66
2021/06/23 10:56:02;;;;;;;12.30;6.45;;;;;;;23.17;74.70;100833.78;4887234;28;103901;-65
2021/06/23 10:58:31;;;;;;;12.80;6.60;;;;;;;23.15;74.46;100836.13;4892328;28;102857;-66
2021/06/23 11:01:09;;;;;;;12.52;6.50;;;;;;;23.11;74.55;100840.75;4898053;28;102963;-67
2021/06/23 11:03:59;;;;;;;9.68;5.93;;;;;;;23.10;74.36;100841.09;4888280;28;102201;-66
2021/06/23 11:06:43;;;;;;;11.48;6.15;;;;;;;23.07;74.57;100834.28;4878673;28;103557;-66
2021/06/23 11:09:26;;;;;;;12.30;6.03;;;;;;;23.04;74.48;100837.75;4885219;28;103344;-65
2021/06/23 11:11:53;;;;;;;11.10;6.55;;;;;;;23.04;74.59;100834.97;4882380;28;102208;-66
2021/06/23 11:14:21;;;;;;;11.90;6.15;;;;;;;23.02;74.39;100832.56;4888543;28;103207;-65
2021/06/23 11:16:49;;;;;;;11.30;6.67;;;;;;;22.99;74.64;100835.25;4886200;28;103928;-66
2021/06/23 11:19:17;;;;;;;9.82;6.25;;;;;;;22.99;74.45;100840.78;4886697;28;102390;-66
2021/06/23 11:21:46;;;;;;;6.57;5.38;;;;;;;22.96;74.54;100833.97;4884471;28;102678;-65
2021/06/23 11:24:14;;;;;;;7.65;5.45;;;;;;;22.96;74.57;100830.41;4889008;28;104054;-65
2021/06/23 11:27:02;;;;;;;7.43;5.30;;;;;;;22.96;74.34;100838.72;4886760;28;104119;-65
2021/06/23 11:29:33;;;;;;;10.77;6.10;;;;;;;22.93;74.15;100833.88;4887564;28;102623;-65
2021/06/23 11:32:06;;;;;;;9.07;5.50;;;;;;;22.91;74.60;100833.41;4885114;28;102433;-65
2021/06/23 11:34:51;;;;;;;8.88;5.90;;;;;;;22.88;74.38;100837.69;4889093;28;102481;-66
2021/06/23 11:37:19;;;;;;;8.88;5.57;;;;;;;22.88;74.58;100831.31;4885268;28;102702;-66
2021/06/23 11:39:47;;;;;;;8.50;5.82;;;;;;;22.85;74.27;100830.06;4878354;28;102726;-66
2021/06/23 11:42:14;;;;;;;7.20;5.60;;;;;;;22.85;74.12;100834.78;4886482;28;102660;-66
2021/06/23 11:44:43;;;;;;;8.57;5.88;;;;;;;22.83;74.31;100828.78;4886474;28;102673;-66